Peebles, United Kingdom
Current Conditions -  °F | °C
As of 7:20 PM on Thursday 23 Oct 2014 (Local Time) from EGPH Reporting Station
Rain Showers Rain Showers  
Wind Chill: 55°   Ceiling: Unl
Heat Index: 55°   Visibility: 6mi
Dew Point: 52°   Wind: 16mph
Humidity: 88%   Direction: 220°SW
Pressure: 29.68"   Gusts: NA
Location:  55.65°N, 3.19°W
Report Text: EGPH 231820Z 22014KT 9999 -SHRA FEW036 13/11 Q1005
Loading
Personal Weather Stations






























Interactive Weather Map
Tropical Storm Tracking
New forecast layout! Learn more

10-Day Weather Forecast

Advertisements
Track Severe Weather on mobile